Waverly, Illinois
Current Conditions -  °F | °C
As of 7:35 PM on Monday 20 Oct 2014 (Local Time) from KIJX Reporting Station
Clear Clear  
Wind Chill: 57°   Ceiling: Unl
Heat Index: 57°   Visibility: 10mi
Dew Point: 43°   Wind: 5mph
Humidity: 61%   Direction: 270°W
Pressure: 29.99"   Gusts: NA
Location:  39.59°N, 89.95°W
Report Text: KIJX 210035Z AUTO 27004KT 10SM CLR 14/06 A2999 RMK AO2 T01370062
Loading
Personal Weather Stations






























Interactive Weather Map
Tropical Storm Tracking
New forecast layout! Learn more

10-Day Weather Forecast

Advertisements
Track Severe Weather on mobile